Time;durP1;ratioP1;P1;durP2;ratioP2;P2;SDS_P1;SDS_P2;PMS_P1;PMS_P2;Temp;Humidity;BMP_temperature;BMP_pressure;BME280_temperature;BME280_humidity;BME280_pressure;Samples;Min_cycle;Max_cycle;Signal;HPM_P1;HPM_P2
2022/07/11 00:00:14;;;;;;;;;1.75;1.75;;;;;25.60;39.44;101708.16;2101338;27;47952;-50
2022/07/11 00:01:14;;;;;;;;;4.00;3.25;;;;;25.60;39.13;101710.88;2096366;28;47394;-48
2022/07/11 00:02:16;;;;;;;;;3.33;3.33;;;;;25.59;39.23;101703.72;2092240;28;47965;-48
2022/07/11 00:03:16;;;;;;;;;11.00;11.00;;;;;25.58;39.00;101710.13;2104805;27;47446;-48
2022/07/11 00:04:17;;;;;;;;;7.25;7.25;;;;;25.57;39.50;101706.53;2101937;27;46322;-50
2022/07/11 00:05:17;;;;;;;;;6.50;5.00;;;;;25.56;39.68;101699.38;2105689;27;45587;-48
2022/07/11 00:06:18;;;;;;;;;6.75;4.50;;;;;25.56;38.97;101699.38;2100554;27;47854;-50
2022/07/11 00:07:18;;;;;;;;;3.00;3.00;;;;;25.53;38.94;101692.25;2109856;27;47514;-47
2022/07/11 00:08:19;;;;;;;;;4.00;4.00;;;;;25.54;39.61;101706.75;2102465;27;47460;-48
2022/07/11 00:09:19;;;;;;;;;3.00;3.00;;;;;25.52;39.61;101703.25;2105337;27;47914;-46
2022/07/11 00:10:19;;;;;;;;;5.00;5.00;;;;;25.52;39.49;101703.25;2101169;27;47462;-51
2022/07/11 00:11:20;;;;;;;;;3.00;3.00;;;;;25.51;39.05;101705.09;2108119;27;47657;-49
2022/07/11 00:12:21;;;;;;;;;4.00;4.00;;;;;25.51;39.52;101710.53;2102771;27;47566;-47
2022/07/11 00:13:21;;;;;;;;;5.40;5.40;;;;;25.49;39.70;101698.91;2105934;27;47324;-46
2022/07/11 00:14:22;;;;;;;;;3.75;3.75;;;;;25.49;39.42;101714.34;2101438;28;47529;-47
2022/07/11 00:15:23;;;;;;;;;4.00;4.00;;;;;25.48;39.31;101710.75;2108633;27;47838;-49
2022/07/11 00:16:23;;;;;;;;;3.50;3.50;;;;;25.47;39.20;101706.28;2098737;27;47721;-51
2022/07/11 00:17:24;;;;;;;;;3.33;3.33;;;;;25.46;39.39;101700.97;2105242;27;47830;-48
2022/07/11 00:18:25;;;;;;;;;2.00;2.00;;;;;25.45;39.58;101691.94;2099765;27;47965;-49
2022/07/11 00:19:26;;;;;;;;;4.00;4.00;;;;;25.44;39.37;101692.91;2104529;27;47485;-50
2022/07/11 00:20:26;;;;;;;;;2.75;2.75;;;;;25.44;39.48;101702.91;2101653;27;47685;-51
2022/07/11 00:21:26;;;;;;;;;3.00;3.00;;;;;25.42;39.55;101696.72;2103808;27;47040;-47
2022/07/11 00:22:27;;;;;;;;;2.00;2.00;;;;;25.42;39.30;101700.31;2100303;27;47488;-49
2022/07/11 00:23:27;;;;;;;;;1.50;1.50;;;;;25.41;39.35;101700.38;2103405;27;47364;-49
2022/07/11 00:24:28;;;;;;;;;2.00;2.00;;;;;25.39;39.62;101700.50;2098193;27;47673;-48
2022/07/11 00:25:29;;;;;;;;;3.20;3.00;;;;;25.38;39.34;101698.75;2105422;27;46936;-51
2022/07/11 00:26:29;;;;;;;;;1.00;1.00;;;;;25.37;39.70;101701.59;2101638;27;47297;-49
2022/07/11 00:27:29;;;;;;;;;4.00;3.00;;;;;25.35;39.92;101698.97;2105900;27;47522;-48
2022/07/11 00:28:30;;;;;;;;;2.00;2.00;;;;;25.34;39.54;101702.66;2099096;27;47141;-48
2022/07/11 00:29:31;;;;;;;;;2.33;2.33;;;;;25.34;39.66;101707.25;2110691;27;47455;-46
2022/07/11 00:30:31;;;;;;;;;2.60;2.60;;;;;25.34;39.82;101702.66;2101691;27;46872;-48
2022/07/11 00:31:32;;;;;;;;;2.00;2.00;;;;;25.34;39.74;101707.25;2104478;27;48096;-47
2022/07/11 00:32:33;;;;;;;;;3.60;3.60;;;;;25.33;39.82;101702.78;2101956;27;47466;-48
2022/07/11 00:33:33;;;;;;;;;2.00;2.00;;;;;25.33;39.39;101703.66;2104781;27;47539;-47
2022/07/11 00:34:34;;;;;;;;;3.00;2.00;;;;;25.34;39.73;101701.81;2101874;27;46593;-47
2022/07/11 00:35:35;;;;;;;;;3.25;2.75;;;;;25.33;39.37;101702.78;2106085;27;47583;-48
2022/07/11 00:36:36;;;;;;;;;3.00;3.00;;;;;25.32;39.49;101706.47;2102119;27;47785;-48
2022/07/11 00:37:36;;;;;;;;;1.50;1.50;;;;;25.32;40.00;101701.91;2104619;28;47491;-46
2022/07/11 00:38:37;;;;;;;;;3.00;3.00;;;;;25.33;39.65;101702.78;2101554;27;47023;-50
2022/07/11 00:39:37;;;;;;;;;2.00;2.00;;;;;25.32;39.65;101707.34;2105713;27;47588;-47
2022/07/11 00:40:37;;;;;;;;;2.75;1.75;;;;;25.31;39.47;101705.59;2088864;28;47332;-49
2022/07/11 00:41:38;;;;;;;;;2.00;2.00;;;;;25.30;39.76;101703.88;2095910;28;47302;-47
2022/07/11 00:42:38;;;;;;;;;2.50;2.50;;;;;25.28;39.58;101702.19;2078419;28;46437;-49
2022/07/11 00:43:40;;;;;;;;;2.00;2.00;;;;;25.27;39.52;101700.47;2083967;28;47346;-47
2022/07/11 00:44:41;;;;;;;;;2.00;2.00;;;;;25.26;39.96;101701.44;2102443;27;47578;-47
2022/07/11 00:45:41;;;;;;;;;2.67;2.67;;;;;25.24;39.46;101693.41;2104372;27;47401;-48
2022/07/11 00:46:41;;;;;;;;;1.00;1.00;;;;;25.24;39.72;101699.69;2104080;27;47680;-46
2022/07/11 00:47:42;;;;;;;;;1.33;1.33;;;;;25.23;39.73;101695.25;2111662;27;47756;-47
2022/07/11 00:48:42;;;;;;;;;3.00;3.00;;;;;25.24;39.73;101701.53;2068251;28;45765;-46
2022/07/11 00:49:43;;;;;;;;;3.67;3.33;;;;;25.24;39.56;101696.97;2069937;28;46335;-45
2022/07/11 00:50:43;;;;;;;;;3.00;2.25;;;;;25.23;39.83;101697.97;2101747;27;47517;-49
2022/07/11 00:51:44;;;;;;;;;2.00;2.00;;;;;25.21;39.61;101691.75;2102046;28;47714;-46
2022/07/11 00:52:45;;;;;;;;;1.33;1.33;;;;;25.22;40.07;101695.34;2104922;27;47559;-45
2022/07/11 00:53:45;;;;;;;;;2.25;2.25;;;;;25.21;39.55;101693.59;2102760;27;47145;-47
2022/07/11 00:54:46;;;;;;;;;2.25;2.25;;;;;25.20;39.99;101694.59;2105216;27;47551;-49
2022/07/11 00:55:48;;;;;;;;;3.00;2.20;;;;;25.18;39.92;101689.25;2099828;27;47658;-47
2022/07/11 00:56:50;;;;;;;;;2.50;2.50;;;;;25.17;39.95;101683.94;2076656;28;45648;-46
2022/07/11 00:57:52;;;;;;;;;3.00;3.00;;;;;25.16;40.01;101687.63;2075572;28;47774;-46
2022/07/11 00:58:56;;;;;;;;;3.00;3.00;;;;;25.16;39.97;101690.34;2107265;27;45787;-50
2022/07/11 00:59:56;;;;;;;;;4.00;2.60;;;;;25.15;40.01;101685.84;2101631;27;47232;-48
2022/07/11 01:00:57;;;;;;;;;3.00;3.00;;;;;25.13;39.93;101688.69;2101513;27;46803;-48
2022/07/11 01:01:58;;;;;;;;;1.00;1.00;;;;;25.14;39.99;101684.13;2100473;27;46534;-50
2022/07/11 01:02:58;;;;;;;;;4.25;2.50;;;;;25.13;40.24;101690.53;2109908;27;47249;-48
2022/07/11 01:03:59;;;;;;;;;1.33;1.33;;;;;25.12;40.12;101686.94;2084996;28;45568;-50
2022/07/11 01:04:59;;;;;;;;;2.00;2.00;;;;;25.11;40.37;101690.63;2083544;28;47430;-49
2022/07/11 01:06:00;;;;;;;;;2.00;2.00;;;;;25.11;40.34;101692.47;2103008;27;47718;-51
2022/07/11 01:07:00;;;;;;;;;2.00;2.00;;;;;25.10;40.40;101690.75;2107280;27;47725;-48
2022/07/11 01:08:01;;;;;;;;;2.00;2.00;;;;;25.09;39.99;101689.88;2102162;27;47899;-46
2022/07/11 01:09:02;;;;;;;;;0.00;0.00;;;;;25.08;39.84;101684.53;2103984;27;46442;-48
2022/07/11 01:10:03;;;;;;;;;2.00;2.00;;;;;25.07;40.20;101688.25;2101720;28;47925;-49
2022/07/11 01:11:04;;;;;;;;;1.33;1.33;;;;;25.07;40.09;101690.97;2107466;27;48054;-47
2022/07/11 01:12:05;;;;;;;;;2.25;2.25;;;;;25.04;40.11;101691.16;2104993;27;47549;-45
2022/07/11 01:13:07;;;;;;;;;3.00;3.00;;;;;25.03;40.03;101684.88;2103223;27;47740;-49
2022/07/11 01:14:07;;;;;;;;;3.00;3.00;;;;;25.02;40.12;101688.53;2100900;27;47895;-49
2022/07/11 01:15:08;;;;;;;;;3.50;3.50;;;;;25.02;40.15;101693.09;2106426;27;47830;-51
2022/07/11 01:16:12;;;;;;;;;1.00;1.00;;;;;25.00;39.98;101686.88;2101869;27;47723;-47
2022/07/11 01:17:13;;;;;;;;;1.25;1.00;;;;;24.98;40.62;101686.09;2104640;27;47951;-46
2022/07/11 01:18:13;;;;;;;;;2.00;2.00;;;;;24.99;40.00;101685.13;2103726;27;47817;-47
2022/07/11 01:19:13;;;;;;;;;0.00;0.00;;;;;24.97;40.49;101689.78;2081390;28;47703;-49
2022/07/11 01:20:14;;;;;;;;;2.00;2.00;;;;;24.96;40.28;101686.22;2076726;28;47826;-47
2022/07/11 01:21:41;;;;;;;;;3.00;2.00;;;;;24.95;40.32;101684.47;2104654;27;47267;-49
2022/07/11 01:22:50;;;;;;;;;2.00;2.00;;;;;24.93;40.27;101681.84;2102228;27;45175;-48
2022/07/11 01:23:52;;;;;;;;;2.20;2.20;;;;;24.91;40.20;101675.66;2099920;27;46715;-49
2022/07/11 01:24:54;;;;;;;;;1.00;1.00;;;;;24.90;40.52;101678.44;2103175;27;47932;-47
2022/07/11 01:25:55;;;;;;;;;1.40;1.40;;;;;24.89;40.56;101683.00;2105970;27;46703;-47
2022/07/11 01:26:56;;;;;;;;;2.50;2.50;;;;;24.86;40.62;101677.78;2102601;27;47475;-49
2022/07/11 01:28:00;;;;;;;;;1.00;1.00;;;;;24.86;40.06;101674.22;2102274;27;47903;-46
2022/07/11 01:29:07;;;;;;;;;1.60;1.60;;;;;24.84;40.39;101677.03;2101091;27;47887;-48
2022/07/11 01:30:07;;;;;;;;;1.80;1.80;;;;;24.84;40.45;101674.31;2100381;27;47660;-46
2022/07/11 01:31:08;;;;;;;;;1.00;1.00;;;;;24.84;40.17;101681.59;2085095;28;47744;-48
2022/07/11 01:32:08;;;;;;;;;2.25;2.25;;;;;24.82;40.40;101678.97;2084988;28;47302;-52
2022/07/11 01:33:08;;;;;;;;;2.00;1.00;;;;;24.82;40.35;101678.97;2107779;27;47584;-50
2022/07/11 01:34:10;;;;;;;;;1.25;1.25;;;;;24.82;40.51;101681.69;2102089;27;47599;-47
2022/07/11 01:35:10;;;;;;;;;2.00;2.00;;;;;24.83;40.34;101680.72;2085642;28;46866;-46
2022/07/11 01:36:12;;;;;;;;;2.00;1.75;;;;;24.83;40.76;101680.72;2067143;28;47911;-47
2022/07/11 01:37:12;;;;;;;;;2.20;2.20;;;;;24.84;40.40;101682.47;2085789;28;47682;-47
2022/07/11 01:38:12;;;;;;;;;2.50;2.50;;;;;24.84;40.54;101685.16;2100588;27;45756;-50
2022/07/11 01:39:13;;;;;;;;;2.50;2.50;;;;;24.84;40.42;101687.03;2103711;27;45967;-49
2022/07/11 01:40:13;;;;;;;;;2.50;2.50;;;;;24.84;40.34;101687.88;2100003;27;47962;-48
2022/07/11 01:41:14;;;;;;;;;2.00;2.00;;;;;24.83;40.41;101680.72;2102255;27;47889;-46
2022/07/11 01:42:14;;;;;;;;;1.75;1.75;;;;;24.83;40.63;101683.44;2102240;27;47835;-51
2022/07/11 01:43:15;;;;;;;;;0.50;0.50;;;;;24.83;40.73;101688.00;2106095;27;47441;-50
2022/07/11 01:44:15;;;;;;;;;2.00;2.00;;;;;24.82;40.64;101687.13;2100750;27;46529;-49
2022/07/11 01:45:15;;;;;;;;;3.00;3.00;;;;;24.82;40.41;101692.56;2104242;27;47579;-47
2022/07/11 01:46:17;;;;;;;;;3.00;2.00;;;;;24.84;40.67;101684.31;2098928;27;47534;-47
2022/07/11 01:47:18;;;;;;;;;2.00;2.00;;;;;24.84;40.80;101685.16;2107444;27;48361;-48
2022/07/11 01:48:19;;;;;;;;;3.50;3.50;;;;;24.85;40.61;101689.63;2101420;27;47418;-47
2022/07/11 01:49:19;;;;;;;;;2.00;2.00;;;;;24.86;40.51;101693.22;2104291;27;47766;-49
2022/07/11 01:50:20;;;;;;;;;1.33;1.33;;;;;24.85;40.61;101689.63;2099062;27;47662;-46
2022/07/11 01:51:22;;;;;;;;;1.00;1.00;;;;;24.86;41.06;101683.22;2105803;27;48420;-50
2022/07/11 01:52:23;;;;;;;;;3.20;3.20;;;;;24.87;40.69;101690.38;2098479;27;47740;-49
2022/07/11 01:53:23;;;;;;;;;3.25;3.00;;;;;24.87;40.67;101679.53;2104873;27;47884;-46
2022/07/11 01:54:24;;;;;;;;;2.00;2.00;;;;;24.88;40.93;101685.84;2101434;27;47409;-47
2022/07/11 01:55:24;;;;;;;;;1.50;1.50;;;;;24.89;40.67;101683.00;2106047;27;46390;-48
2022/07/11 01:56:27;;;;;;;;;3.00;3.00;;;;;24.90;40.33;101689.31;2093805;28;47068;-48
2022/07/11 01:57:27;;;;;;;;;3.60;3.60;;;;;24.89;40.44;101683.00;2098522;28;47349;-47
2022/07/11 01:58:30;;;;;;;;;3.00;3.00;;;;;24.90;40.47;101686.59;2082325;28;47429;-50
2022/07/11 01:59:30;;;;;;;;;2.40;2.40;;;;;24.89;40.44;101683.00;2087099;28;47988;-49
2022/07/11 02:00:31;;;;;;;;;2.00;2.00;;;;;24.89;40.32;101684.84;2102118;27;46987;-48
2022/07/11 02:01:31;;;;;;;;;4.25;3.75;;;;;24.89;40.72;101677.56;2091260;28;48208;-50
2022/07/11 02:02:32;;;;;;;;;3.00;3.00;;;;;24.88;40.73;101681.28;2095370;28;47683;-47
2022/07/11 02:03:32;;;;;;;;;2.00;2.00;;;;;24.89;40.72;101680.28;2107797;27;47517;-47
2022/07/11 02:04:33;;;;;;;;;3.00;0.00;;;;;24.89;40.67;101682.13;2093035;28;46591;-49
2022/07/11 02:05:34;;;;;;;;;3.00;3.00;;;;;24.89;40.46;101676.72;2095935;28;48274;-49
2022/07/11 02:06:34;;;;;;;;;3.00;2.75;;;;;24.89;40.49;101677.56;2102636;27;47394;-48
2022/07/11 02:08:53;;;;;;;;;2.80;2.80;;;;;24.89;40.62;101683.00;2090697;28;47722;-48
2022/07/11 02:09:53;;;;;;;;;3.25;3.25;;;;;24.90;40.66;101681.16;2102533;27;47698;-49
2022/07/11 02:10:54;;;;;;;;;3.50;3.50;;;;;24.89;40.67;101683.00;2105723;27;46137;-46
2022/07/11 02:11:55;;;;;;;;;2.50;2.50;;;;;24.89;40.73;101679.44;2102770;27;47635;-50
2022/07/11 02:12:58;;;;;;;;;2.00;2.00;;;;;24.89;40.59;101680.28;2101472;27;48020;-49
2022/07/11 02:13:58;;;;;;;;;3.40;3.40;;;;;24.89;40.88;101687.56;2099580;27;48139;-49
2022/07/11 02:14:58;;;;;;;;;3.25;3.25;;;;;24.89;40.66;101684.84;2078712;28;47567;-47
2022/07/11 02:15:59;;;;;;;;;1.50;1.50;;;;;24.88;40.88;101683.13;2073013;28;46914;-46
2022/07/11 02:16:59;;;;;;;;;2.25;2.25;;;;;24.88;40.74;101683.13;2100104;27;47670;-47
2022/07/11 02:18:00;;;;;;;;;2.25;2.00;;;;;24.87;40.38;101678.66;2098958;27;46897;-49
2022/07/11 02:19:00;;;;;;;;;3.25;3.25;;;;;24.86;40.57;101677.78;2107546;27;47333;-48
2022/07/11 02:20:00;;;;;;;;;2.50;2.50;;;;;24.86;40.58;101680.50;2081061;28;47961;-47
2022/07/11 02:21:01;;;;;;;;;3.75;3.00;;;;;24.86;40.66;101677.78;2089324;28;48134;-47
2022/07/11 02:22:05;;;;;;;;;2.00;2.00;;;;;24.87;40.52;101684.09;2101720;28;48100;-46
2022/07/11 02:23:07;;;;;;;;;2.40;2.40;;;;;24.87;40.33;101681.38;2082052;28;47843;-46
2022/07/11 02:24:08;;;;;;;;;2.00;2.00;;;;;24.85;40.80;101680.63;2083992;28;46564;-48
2022/07/11 02:25:09;;;;;;;;;3.40;3.40;;;;;24.85;40.74;101683.31;2096125;27;47884;-47
2022/07/11 02:26:09;;;;;;;;;2.00;2.00;;;;;24.86;40.61;101685.06;2097530;27;47683;-49
2022/07/11 02:27:09;;;;;;;;;2.75;2.75;;;;;24.85;40.77;101684.19;2104382;27;46374;-48
2022/07/11 02:28:11;;;;;;;;;2.25;2.25;;;;;24.85;40.74;101686.03;2099661;27;46395;-49
2022/07/11 02:29:11;;;;;;;;;2.50;2.50;;;;;24.85;40.54;101681.47;2103133;27;47439;-48
2022/07/11 02:30:12;;;;;;;;;2.33;2.33;;;;;24.85;40.60;101676.06;2100140;27;46849;-47
2022/07/11 02:31:12;;;;;;;;;3.00;2.00;;;;;24.85;40.55;101677.91;2104910;27;47928;-48
2022/07/11 02:32:13;;;;;;;;;2.00;2.00;;;;;24.84;40.72;101677.03;2100110;27;47611;-46
2022/07/11 02:33:15;;;;;;;;;3.00;3.00;;;;;24.82;40.57;101670.84;2108434;27;46234;-47
2022/07/11 02:34:15;;;;;;;;;2.80;2.80;;;;;24.81;40.86;101671.81;2090508;28;47392;-46
2022/07/11 02:35:16;;;;;;;;;1.00;1.00;;;;;24.81;40.76;101676.38;2096949;28;47972;-46
2022/07/11 02:36:16;;;;;;;;;2.00;2.00;;;;;24.79;40.73;101678.31;2099261;27;46618;-48
2022/07/11 02:37:18;;;;;;;;;1.50;1.50;;;;;24.77;41.21;101675.69;2102234;27;47302;-49
2022/07/11 02:38:19;;;;;;;;;2.00;2.00;;;;;24.77;41.01;101680.22;2100169;27;47203;-47
2022/07/11 02:39:19;;;;;;;;;2.25;1.75;;;;;24.75;40.95;101679.47;2106873;27;47154;-48
2022/07/11 02:40:20;;;;;;;;;2.00;2.00;;;;;24.75;40.93;101679.47;2102175;27;47816;-49
2022/07/11 02:41:20;;;;;;;;;3.75;3.75;;;;;24.73;41.28;101668.72;2105912;27;47714;-48
2022/07/11 02:42:20;;;;;;;;;2.50;2.50;;;;;24.73;41.09;101678.72;2101545;27;47446;-50
2022/07/11 02:43:21;;;;;;;;;4.00;4.00;;;;;24.71;41.03;101672.50;2107290;27;47940;-47
2022/07/11 02:44:21;;;;;;;;;3.00;3.00;;;;;24.70;41.05;101678.91;2100917;27;47496;-48
2022/07/11 02:45:22;;;;;;;;;2.75;2.75;;;;;24.68;40.86;101679.03;2104172;27;45438;-47
2022/07/11 02:46:22;;;;;;;;;3.00;3.00;;;;;24.65;40.98;101680.09;2089505;28;47442;-46
2022/07/11 02:47:23;;;;;;;;;4.25;4.25;;;;;24.64;40.88;101680.16;2095749;28;48102;-49
2022/07/11 02:48:24;;;;;;;;;4.00;3.60;;;;;24.62;40.77;101683.00;2100488;27;47674;-46
2022/07/11 02:49:24;;;;;;;;;2.75;1.75;;;;;24.61;41.20;101683.97;2107253;27;47524;-49
2022/07/11 02:50:25;;;;;;;;;3.25;3.25;;;;;24.59;40.92;101680.47;2099841;27;46551;-46
2022/07/11 02:51:25;;;;;;;;;3.00;3.00;;;;;24.59;41.43;101683.19;2105270;27;47681;-49
2022/07/11 02:52:25;;;;;;;;;4.00;4.00;;;;;24.59;41.35;101680.47;2092261;28;47689;-52
2022/07/11 02:53:26;;;;;;;;;4.75;4.75;;;;;24.58;41.07;101684.16;2094539;28;48047;-48
2022/07/11 02:54:26;;;;;;;;;4.00;4.00;;;;;24.57;41.29;101677.00;2099993;27;47784;-51
2022/07/11 02:55:27;;;;;;;;;2.75;2.00;;;;;24.56;41.47;101680.69;2107793;27;47516;-48
2022/07/11 02:56:27;;;;;;;;;2.25;2.25;;;;;24.54;41.52;101685.34;2098526;27;47975;-47
2022/07/11 02:57:28;;;;;;;;;2.75;2.75;;;;;24.53;41.28;101680.03;2104349;27;47477;-48
2022/07/11 02:58:28;;;;;;;;;3.50;3.50;;;;;24.50;41.43;101674.78;2100798;27;45300;-47
2022/07/11 02:59:28;;;;;;;;;3.75;3.75;;;;;24.49;41.64;101681.19;2105181;27;46601;-47
2022/07/11 03:00:29;;;;;;;;;4.00;4.00;;;;;24.46;41.58;101682.25;2101722;28;47789;-49
2022/07/11 03:01:30;;;;;;;;;1.50;1.50;;;;;24.44;41.43;101684.19;2105183;27;47829;-48
2022/07/11 03:02:30;;;;;;;;;4.75;4.75;;;;;24.43;41.51;101677.03;2100894;27;47799;-49
2022/07/11 03:03:31;;;;;;;;;3.50;3.50;;;;;24.42;41.34;101678.00;2104302;28;48028;-47
2022/07/11 03:04:33;;;;;;;;;3.00;3.00;;;;;24.37;41.55;101680.13;2094381;28;48143;-47
2022/07/11 03:05:33;;;;;;;;;3.00;3.00;;;;;24.35;41.79;101666.66;2098054;28;47667;-51
2022/07/11 03:06:33;;;;;;;;;4.25;4.25;;;;;24.32;41.73;101682.28;2102380;27;47712;-50
2022/07/11 03:07:34;;;;;;;;;3.25;3.25;;;;;24.29;41.52;101669.75;2106735;27;47600;-47
2022/07/11 03:08:36;;;;;;;;;5.25;3.25;;;;;24.28;41.80;101680.69;2099797;27;47351;-48
2022/07/11 03:09:37;;;;;;;;;1.20;1.20;;;;;24.26;41.65;101675.34;2105323;27;47222;-48
2022/07/11 03:10:38;;;;;;;;;3.00;3.00;;;;;24.24;41.90;101677.28;2103258;27;47974;-50
2022/07/11 03:11:39;;;;;;;;;1.80;1.80;;;;;24.22;41.45;101671.09;2105381;27;47338;-49
2022/07/11 03:12:39;;;;;;;;;3.75;3.75;;;;;24.21;41.61;101672.06;2091843;28;47488;-48
2022/07/11 03:13:40;;;;;;;;;2.75;2.75;;;;;24.19;42.01;101674.00;2095545;28;47724;-49
2022/07/11 03:14:40;;;;;;;;;3.75;3.75;;;;;24.18;41.90;101674.09;2104277;27;47472;-48
2022/07/11 03:15:41;;;;;;;;;3.25;3.25;;;;;24.18;41.97;101676.81;2105937;27;47696;-48
2022/07/11 03:16:42;;;;;;;;;2.80;2.80;;;;;24.16;41.97;101676.06;2104412;27;47803;-47
2022/07/11 03:17:42;;;;;;;;;4.75;4.75;;;;;24.15;42.24;101672.47;2104246;27;47506;-49
2022/07/11 03:18:43;;;;;;;;;3.00;3.00;;;;;24.14;42.15;101673.44;2103311;27;45979;-50
2022/07/11 03:19:44;;;;;;;;;3.75;3.75;;;;;24.13;42.16;101677.09;2104704;27;47585;-49
2022/07/11 03:20:46;;;;;;;;;4.00;4.00;;;;;24.11;42.07;101668.19;2103501;27;47635;-51
2022/07/11 03:21:46;;;;;;;;;2.40;2.40;;;;;24.10;42.25;101671.88;2094603;28;47844;-51
2022/07/11 03:22:46;;;;;;;;;3.50;3.50;;;;;24.09;42.08;101672.84;2094050;28;47735;-50
2022/07/11 03:23:47;;;;;;;;;9.25;9.25;;;;;24.06;42.20;101664.91;2103569;27;46787;-50
2022/07/11 03:24:47;;;;;;;;;7.75;7.75;;;;;24.05;42.21;101676.72;2103529;27;47459;-49
2022/07/11 03:25:48;;;;;;;;;5.00;4.50;;;;;24.03;42.25;101673.25;2102860;27;47581;-49
2022/07/11 03:26:48;;;;;;;;;5.75;5.25;;;;;24.02;42.11;101677.78;2106069;27;45582;-48
2022/07/11 03:27:48;;;;;;;;;5.00;3.25;;;;;24.00;42.49;101671.56;2104478;27;47862;-47
2022/07/11 03:28:49;;;;;;;;;5.50;4.00;;;;;23.98;42.34;101676.22;2103696;27;46682;-48
2022/07/11 03:29:50;;;;;;;;;5.50;5.50;;;;;23.97;42.47;101671.78;2102928;27;48012;-48
2022/07/11 03:30:50;;;;;;;;;4.50;3.50;;;;;23.99;42.39;101671.66;2105350;27;47181;-48
2022/07/11 03:31:50;;;;;;;;;3.00;3.00;;;;;23.98;42.62;101672.63;2104264;27;47533;-49
2022/07/11 03:32:51;;;;;;;;;2.75;2.75;;;;;24.00;42.43;101679.69;2102217;28;46748;-48
2022/07/11 03:33:51;;;;;;;;;5.25;3.25;;;;;24.01;42.47;101672.44;2106374;27;47690;-46
2022/07/11 03:36:10;;;;;;;;;4.60;4.60;;;;;24.04;42.70;101669.56;2101308;27;47415;-48
2022/07/11 03:37:11;;;;;;;;;5.25;5.00;;;;;24.07;42.59;101674.78;2076379;28;48162;-50
2022/07/11 03:38:12;;;;;;;;;3.50;3.50;;;;;24.07;42.42;101672.94;2077342;28;47575;-50
2022/07/11 03:39:14;;;;;;;;;3.00;3.00;;;;;24.08;42.47;101671.97;2107508;27;47828;-50
2022/07/11 03:40:15;;;;;;;;;3.20;3.20;;;;;24.10;42.41;101682.72;2102436;27;48263;-50
2022/07/11 03:41:16;;;;;;;;;2.60;2.60;;;;;24.10;42.39;101677.28;2104856;27;47717;-48
2022/07/11 03:42:16;;;;;;;;;5.00;2.00;;;;;24.12;42.43;101679.91;2099673;27;47754;-49
2022/07/11 03:43:16;;;;;;;;;3.50;3.50;;;;;24.11;42.33;101679.03;2078594;28;45784;-48
2022/07/11 03:44:17;;;;;;;;;4.00;3.25;;;;;24.10;42.29;101685.44;2077014;28;47271;-48
2022/07/11 03:45:18;;;;;;;;;3.00;3.00;;;;;24.09;42.34;101680.97;2102449;27;47986;-49
2022/07/11 03:46:18;;;;;;;;;3.20;3.20;;;;;24.09;42.33;101683.69;2101506;27;49098;-51
2022/07/11 03:47:19;;;;;;;;;3.00;3.00;;;;;24.08;42.59;101685.53;2106575;27;47836;-47
2022/07/11 03:48:20;;;;;;;;;2.20;2.20;;;;;24.09;42.49;101680.97;2099508;27;46994;-51
2022/07/11 03:49:20;;;;;;;;;3.00;3.00;;;;;24.11;42.21;101680.88;2103294;27;46930;-49
2022/07/11 03:50:21;;;;;;;;;3.50;3.50;;;;;24.11;42.60;101680.88;2086413;28;47451;-48
2022/07/11 03:51:21;;;;;;;;;4.25;4.25;;;;;24.11;42.34;101676.31;2086102;28;48039;-49
2022/07/11 03:52:21;;;;;;;;;4.00;4.00;;;;;24.11;42.50;101681.75;2094091;28;47530;-51
2022/07/11 03:53:22;;;;;;;;;4.25;3.00;;;;;24.12;42.32;101683.50;2090990;28;47816;-49
2022/07/11 03:54:22;;;;;;;;;2.25;2.25;;;;;24.12;42.50;101680.78;2094060;28;47223;-47
2022/07/11 03:55:23;;;;;;;;;3.00;3.00;;;;;24.13;42.48;101677.09;2086202;28;47694;-48
2022/07/11 03:56:23;;;;;;;;;4.00;4.00;;;;;24.14;42.40;101675.25;2084768;28;45869;-49
2022/07/11 03:57:24;;;;;;;;;4.25;4.00;;;;;24.15;42.50;101682.44;2095944;28;46463;-47
2022/07/11 03:58:24;;;;;;;;;3.50;3.50;;;;;24.15;42.47;101680.59;2093783;28;47849;-47
2022/07/11 03:59:25;;;;;;;;;4.25;3.00;;;;;24.16;42.31;101678.75;2095368;28;47538;-48
2022/07/11 04:00:25;;;;;;;;;3.75;2.75;;;;;24.15;42.15;101679.75;2093784;28;47828;-47
2022/07/11 04:01:25;;;;;;;;;4.25;4.25;;;;;24.16;42.44;101674.22;2093302;28;47358;-49
2022/07/11 04:02:26;;;;;;;;;3.50;3.50;;;;;24.17;42.31;101675.94;2093283;28;47319;-47
2022/07/11 04:03:26;;;;;;;;;4.50;3.00;;;;;24.17;42.53;101672.38;2096359;28;47406;-46
2022/07/11 04:04:27;;;;;;;;;6.75;5.00;;;;;24.17;42.26;101673.25;2093052;28;47903;-47
2022/07/11 04:05:27;;;;;;;;;3.75;3.75;;;;;24.17;42.44;101673.25;2096208;28;46818;-45
2022/07/11 04:06:28;;;;;;;;;3.25;3.25;;;;;24.18;42.17;101671.41;2089156;28;48297;-46
2022/07/11 04:07:28;;;;;;;;;5.25;5.25;;;;;24.18;42.39;101679.53;2088433;28;46679;-45
2022/07/11 04:08:29;;;;;;;;;3.00;3.00;;;;;24.18;42.37;101680.41;2090303;28;47106;-47
2022/07/11 04:09:29;;;;;;;;;4.00;4.00;;;;;24.18;42.42;101676.81;2086510;28;48025;-46
2022/07/11 04:10:29;;;;;;;;;4.00;4.00;;;;;24.18;42.31;101674.09;2083117;28;47808;-48
2022/07/11 04:11:30;;;;;;;;;4.25;4.25;;;;;24.18;42.48;101669.56;2096621;28;46814;-46
2022/07/11 04:12:30;;;;;;;;;4.00;4.00;;;;;24.18;42.42;101666.84;2091135;28;45760;-47
2022/07/11 04:13:31;;;;;;;;;3.00;3.00;;;;;24.19;42.45;101676.72;2095565;28;47533;-45
2022/07/11 04:14:32;;;;;;;;;3.50;3.00;;;;;24.19;42.44;101674.00;2094204;28;47310;-47
2022/07/11 04:15:32;;;;;;;;;2.75;2.75;;;;;24.19;42.21;101675.84;2095243;28;47198;-49
2022/07/11 04:16:32;;;;;;;;;3.75;3.75;;;;;24.19;42.43;101673.13;2079646;28;47470;-46
2022/07/11 04:17:33;;;;;;;;;3.50;3.50;;;;;24.18;42.33;101669.56;2086983;28;47995;-46
2022/07/11 04:18:33;;;;;;;;;4.00;4.00;;;;;24.18;42.55;101672.28;2091556;28;47713;-46
2022/07/11 04:19:34;;;;;;;;;3.00;3.00;;;;;24.17;42.42;101669.66;2093659;28;47766;-46
2022/07/11 04:20:34;;;;;;;;;3.00;3.00;;;;;24.15;42.43;101675.19;2092714;28;46430;-47
2022/07/11 04:21:35;;;;;;;;;3.50;3.50;;;;;24.14;42.45;101684.28;2096409;28;46433;-47
2022/07/11 04:22:36;;;;;;;;;3.75;3.75;;;;;24.12;42.57;101671.78;2092815;28;47278;-49
2022/07/11 04:23:36;;;;;;;;;3.25;2.75;;;;;24.10;42.35;101666.44;2096248;28;46961;-49
2022/07/11 04:24:37;;;;;;;;;2.00;2.00;;;;;24.08;42.21;101676.53;2091185;28;47311;-49
2022/07/11 04:25:38;;;;;;;;;4.25;4.25;;;;;24.05;42.36;101674.88;2096750;28;47681;-47
2022/07/11 04:26:38;;;;;;;;;5.00;4.00;;;;;24.05;42.46;101676.72;2092165;28;48058;-48
2022/07/11 04:27:38;;;;;;;;;5.00;4.00;;;;;24.04;42.37;101684.00;2096724;28;47249;-46
2022/07/11 04:28:39;;;;;;;;;3.50;3.50;;;;;24.05;42.70;101682.16;2090334;28;47439;-51
2022/07/11 04:29:39;;;;;;;;;3.00;3.00;;;;;24.03;42.52;101679.53;2096895;28;47176;-48
2022/07/11 04:30:39;;;;;;;;;4.00;4.00;;;;;24.04;42.57;101674.97;2092562;28;47407;-50
2022/07/11 04:31:40;;;;;;;;;4.00;4.00;;;;;24.04;42.68;101672.28;2100250;28;47675;-48
2022/07/11 04:32:40;;;;;;;;;2.25;2.25;;;;;24.04;42.86;101673.16;2092351;28;46529;-47
2022/07/11 04:33:40;;;;;;;;;6.00;6.00;;;;;24.05;42.78;101677.59;2070623;28;46527;-48
2022/07/11 04:34:41;;;;;;;;;4.00;4.00;;;;;24.06;42.89;101683.88;2068803;28;47568;-50
2022/07/11 04:35:42;;;;;;;;;3.25;3.25;;;;;24.07;42.88;101685.63;2096082;28;46395;-50
2022/07/11 04:36:43;;;;;;;;;4.75;4.75;;;;;24.07;42.59;101678.38;2093478;28;48076;-50
2022/07/11 04:37:44;;;;;;;;;4.00;4.00;;;;;24.08;42.75;101681.94;2094100;28;47446;-49
2022/07/11 04:38:44;;;;;;;;;4.00;4.00;;;;;24.07;42.71;101686.50;2094858;28;46363;-46
2022/07/11 04:39:46;;;;;;;;;4.25;4.25;;;;;24.08;42.40;101685.53;2090768;28;47973;-49
2022/07/11 04:40:48;;;;;;;;;4.80;4.00;;;;;24.07;42.88;101681.06;2094895;28;45597;-46
2022/07/11 04:41:48;;;;;;;;;4.20;4.20;;;;;24.08;42.80;101679.22;2098940;28;46931;-52
2022/07/11 04:42:52;;;;;;;;;3.00;3.00;;;;;24.09;42.68;101691.81;2094266;28;46777;-47
2022/07/11 04:43:53;;;;;;;;;4.80;4.40;;;;;24.09;42.67;101689.13;2089896;28;46644;-50
2022/07/11 04:44:53;;;;;;;;;5.00;2.50;;;;;24.10;42.56;101692.69;2094049;28;46801;-47